Oujda, Morocco

5:30 PM WET on February 27, 2015 (GMT +0000)
Angads | Change Station
CLOSE
Current Station
Airport
Location: Oujda,
Elevation: 1542 ft
Nearby Weather Stations

Elev 1542 ft 34.79 °N, 1.92 °W | Updated 30 minutes ago

Scattered Clouds
Scattered Clouds
61 °F
Feels Like 61 °F
N
12
Wind Variable Wind from North

Today
High -- | Low -- °F
--% Chance of Precip.
Yesterday
High -- | Low -- °F
Precip. -- in
6:40 AM 6:01 PM
Waxing Gibbous, 70% visible
Pressure 30.12 in
Visibility 6.2 miles
Clouds Scattered Clouds 2300 ft
Scattered Clouds 23000 ft
Dew Point 48 °F
Humidity 63%
Rainfall 0.00 in
Snow Depth Not available.
UV 1 out of 12
Pollen Not available.
Air Quality Not available.
Flu Activity Not available.
METAR GMFO 271700Z 36010KT 9999 SCT023 SCT230 16/09 Q1020 NOSIG

More Conditions Fewer Conditions

Pressure 30.12 in
Visibility 6.2 miles
Clouds Scattered Clouds 2300 ft
Scattered Clouds 23000 ft
Dew Point 48 °F
Humidity 63%
Rainfall 0.00 in
Snow Depth Not available.
UV 1 out of 12
Pollen Not available.
Air Quality Not available.
Flu Activity Not available.
METAR GMFO 271700Z 36010KT 9999 SCT023 SCT230 16/09 Q1020 NOSIG

More Conditions Fewer Conditions

10-Day Weather Forecast

Almanac

Astronomy

Feb. 27, 2015 Rise Set
Actual Time
Civil Twilight
Nautical Twilight
Astronomical Twilight
Moon
Length of Visible Light
Length of Day
Tomorrow will be .
, % of the Moon is Illuminated

Today's Extremes

Country Highs Country Lows

Community

WunderPhotos

Upload Photos

1,800,753 photos uploaded!

WunderBlogs® & News

Nearby

Air Quality

  Air Quality AQ Index Pollutant
Not available.

Snow Depth

Station Depth Elevation

Earthquake Activity

City Distance Mag. Time & Date
Minimum magnitude displayed is 2.5.

Coastal Water Temperatures

Place Temperature

Nearby Weather Stations